Liverpool Express — DDSD2 — position and weather

sailwx.info

Track history (hours):
 
Tides and Currents Weather Stations Pressure Air Temp Water Temp Dewpoint Dewpoint Depression Visibility Wind Speed Wind Dir Waves Ship Positions

Liverpool Express

Last reported at 2014-Jul-29 14:32 UTC. Time now 2014-Jul-29 14:51 UTC.
Position N 51°22' E 002°37'.

Length 281 m; draft 10.3 m.

Type: Cargo ship. MMSI: 218025000.

Date/timePositionNaut miles runAvg speedWind from/ knotsBaromVisibWave heightAir tempDewpointWater temp
2014-Jul-29 14:32N 51°22' E 002°37'1414.3
2014-Jul-29 13:33N 51°19' E 002°16'1817.6
2014-Jul-29 12:34N 51°30' E 001°53'1919.2
2014-Jul-29 11:33N 51°48' E 001°43'9 8.5
2014-Jul-29 10:33N 51°45' E 001°30'1616.3
2014-Jul-29 09:33N 51°34' E 001°11'1616.1
2014-Jul-29 08:33N 51°29' E 000°46'10 9.3
2014-Jul-29 07:32N 51°30' E 000°30'0 0.0
2014-Jul-29 06:29N 51°30' E 000°30'0 0.0
2014-Jul-29 05:34N 51°30' E 000°30'0 0.0
2014-Jul-29 04:33N 51°30' E 000°30'0 0.0
2014-Jul-29 03:33N 51°30' E 000°30'0 0.0
2014-Jul-29 02:33N 51°30' E 000°30'0 0.0
2014-Jul-29 01:33N 51°30' E 000°30'0 0.0
2014-Jul-29 00:31N 51°30' E 000°30'0 0.0
2014-Jul-28 23:31N 51°30' E 000°30'0 0.0
2014-Jul-28 22:32N 51°30' E 000°30'0 0.0
2014-Jul-28 21:32N 51°30' E 000°30'0 0.0
2014-Jul-28 20:33N 51°30' E 000°30'0 0.0
2014-Jul-28 19:33N 51°30' E 000°30'0 0.0
2014-Jul-28 18:33N 51°30' E 000°30'0 0.0
2014-Jul-28 17:31N 51°30' E 000°30'3 2.9
2014-Jul-28 16:33N 51°30' E 000°35'1414.2
2014-Jul-28 15:33N 51°29' E 000°57'1616.3
2014-Jul-28 14:33N 51°37' E 001°20'1615.9
2014-Jul-28 13:34N 51°49' E 001°37'9 8.5
2014-Jul-28 12:33N 51°50' E 001°51'1413.3
2014-Jul-28 11:32N 51°56' E 002°11'1414.1
2014-Jul-28 10:33N 52°05' E 002°28'5115.4
2014-Jul-28 07:15N 52°37' E 003°31'1617.0
2014-Jul-28 06:18N 52°51' E 003°46'3017.4
2014-Jul-28 04:33N 53°11' E 004°24'2017.7
2014-Jul-28 03:25N 53°29' E 004°39'1719.6
2014-Jul-28 02:33N 53°36' E 005°05'2019.7
2014-Jul-28 01:33N 53°42' E 005°37'1919.2
2014-Jul-28 00:33N 53°49' E 006°07'5418.0
2014-Jul-27 21:33N 54°01' E 007°36'1717.0
2014-Jul-27 20:33N 54°01' E 008°05'1514.8
2014-Jul-27 19:33N 53°58' E 008°30'1616.0
2014-Jul-27 18:33N 53°51' E 008°54'1312.9
2014-Jul-27 17:33N 53°53' E 009°15'1515.1
2014-Jul-27 16:33N 53°40' E 009°30'1010.1
2014-Jul-27 15:33N 53°34' E 009°43'7 7.3
2014-Jul-27 14:34N 53°32' E 009°55'0 0.1
2014-Jul-27 13:33N 53°32' E 009°55'0 0.0
2014-Jul-27 12:31N 53°32' E 009°55'0 0.0
2014-Jul-27 11:32N 53°32' E 009°55'0 0.0
2014-Jul-27 10:32N 53°32' E 009°55'0 0.0
2014-Jul-27 09:32N 53°32' E 009°55'0 0.0
2014-Jul-27 08:32N 53°32' E 009°55'0 0.0
2014-Jul-27 07:31N 53°32' E 009°55'0 0.0
2014-Jul-27 06:34N 53°32' E 009°55'0 0.0
2014-Jul-27 05:33N 53°32' E 009°55'0 0.0
2014-Jul-27 04:33N 53°32' E 009°55'0 0.0
2014-Jul-27 03:33N 53°32' E 009°55'0 0.0
2014-Jul-27 02:31N 53°32' E 009°55'0 0.0
2014-Jul-27 01:33N 53°32' E 009°55'0 0.0
2014-Jul-27 00:33N 53°32' E 009°55'0 0.0
2014-Jul-26 23:33N 53°32' E 009°55'0 0.0
2014-Jul-26 22:30N 53°32' E 009°55'0 0.0
2014-Jul-26 21:33N 53°32' E 009°55'0 0.0
2014-Jul-26 20:33N 53°32' E 009°55'0 0.0
2014-Jul-26 19:32N 53°32' E 009°55'0 0.0
2014-Jul-26 18:32N 53°32' E 009°55'0 0.0
2014-Jul-26 17:33N 53°32' E 009°55'0 0.0
2014-Jul-26 16:32N 53°32' E 009°55'0 0.0
2014-Jul-26 15:33N 53°32' E 009°55'0 0.0
2014-Jul-26 14:31N 53°32' E 009°55'0 0.0
2014-Jul-26 13:31N 53°32' E 009°55'0 0.0
2014-Jul-26 12:28N 53°32' E 009°55'0 0.0
2014-Jul-26 11:28N 53°32' E 009°55'0 0.0
2014-Jul-26 10:31N 53°32' E 009°55'0 0.0
2014-Jul-26 09:33N 53°32' E 009°55'0 0.0
2014-Jul-26 08:33N 53°32' E 009°55'0 0.0
2014-Jul-26 07:33N 53°32' E 009°55'0 0.0
2014-Jul-26 06:33N 53°32' E 009°55'0 0.0
2014-Jul-26 05:33N 53°32' E 009°55'0 0.0
2014-Jul-26 04:34N 53°32' E 009°55'5 4.8
2014-Jul-26 03:33N 53°33' E 009°48'1211.6
2014-Jul-26 02:33N 53°39' E 009°31'1414.1
2014-Jul-26 01:33N 53°51' E 009°18'1312.8
2014-Jul-26 00:33N 53°51' E 008°57'1515.3
2014-Jul-25 23:33N 53°58' E 008°34'1514.8
2014-Jul-25 22:33N 53°59' E 008°09'9 9.1
2014-Jul-25 21:33N 53°58' E 007°53'9 9.3
2014-Jul-25 20:33N 53°56' E 007°38'9 9.3
2014-Jul-25 19:33N 53°54' E 007°22'1110.9
2014-Jul-25 18:33N 53°51' E 007°05'1110.9
2014-Jul-25 17:34N 53°49' E 006°47'1110.9
2014-Jul-25 16:33N 53°46' E 006°29'1110.9
2014-Jul-25 15:33N 53°43' E 006°11'1010.3
2014-Jul-25 14:33N 53°40' E 005°55'10 9.9
2014-Jul-25 13:33N 53°37' E 005°39'10 9.9
2014-Jul-25 12:33N 53°34' E 005°23'10 9.9
2014-Jul-25 11:33N 53°31' E 005°07'1616.3
2014-Jul-25 10:33N 53°24' E 004°42'1918.9
2014-Jul-25 09:33N 53°07' E 004°28'2020.1
2014-Jul-25 08:33N 52°49' E 004°13'2019.6
2014-Jul-25 07:33N 52°33' E 003°56'1818.2
2014-Jul-25 06:33N 52°14' E 003°54'1313.1
2014-Jul-25 05:33N 52°01' E 003°56'1312.7
2014-Jul-25 04:33N 51°55' E 004°14'7 7.1
2014-Jul-25 03:33N 51°53' E 004°25'0 0.3
2014-Jul-25 02:33N 51°53' E 004°24'0 0.0
2014-Jul-25 01:33N 51°53' E 004°24'0 0.0
2014-Jul-25 00:33N 51°53' E 004°24'0 0.0
2014-Jul-24 23:34N 51°53' E 004°24'0 0.0
2014-Jul-24 22:32N 51°53' E 004°24'0 0.0
2014-Jul-24 21:32N 51°53' E 004°24'0 0.0
2014-Jul-24 20:32N 51°53' E 004°24'0 0.0
2014-Jul-24 19:32N 51°53' E 004°24'0 0.0
2014-Jul-24 18:32N 51°53' E 004°24'0 0.0
2014-Jul-24 17:32N 51°53' E 004°24'0 0.0
2014-Jul-24 16:32N 51°53' E 004°24'0 0.0
2014-Jul-24 15:32N 51°53' E 004°24'0 0.0
2014-Jul-24 14:32N 51°53' E 004°24'0 0.0
2014-Jul-24 13:32N 51°53' E 004°24'0 0.0
2014-Jul-24 12:32N 51°53' E 004°24'0 0.0
2014-Jul-24 11:32N 51°53' E 004°24'0 0.0
2014-Jul-24 10:32N 51°53' E 004°24'0 0.0
2014-Jul-24 09:32N 51°53' E 004°24'0 0.0
2014-Jul-24 08:32N 51°53' E 004°24'0 0.0
2014-Jul-24 07:29N 51°53' E 004°24'0 0.0
2014-Jul-24 06:32N 51°53' E 004°24'1 1.2
2014-Jul-24 05:33N 51°54' E 004°23'6 6.5
2014-Jul-24 04:33N 51°56' E 004°13'1111.3
2014-Jul-24 03:33N 51°60' E 003°56'1212.0
2014-Jul-24 02:34N 51°58' E 003°37'1615.7
2014-Jul-24 01:33N 51°53' E 003°13'1716.9
2014-Jul-24 00:33N 51°47' E 002°47'1515.0
2014-Jul-23 23:33N 51°39' E 002°27'1919.0
2014-Jul-23 22:33N 51°25' E 002°06'1919.0
2014-Jul-23 21:33N 51°11' E 001°46'1919.3
2014-Jul-23 20:33N 50°54' E 001°30'1818.1
2014-Jul-23 19:33N 50°38' E 001°18'2017.7
2014-Jul-23 18:26N 50°27' E 000°52'1618.6
2014-Jul-23 17:33N 50°23' E 000°27'2519.0
2014-Jul-23 16:14N 50°17' W 000°12'1618.9
2014-Jul-23 15:22N 50°13' W 000°36'8616.8
2014-Jul-23 10:16N 49°51' W 002°45'40418.1
2014-Jul-22 12:00N 48°24' W 012°48'21818.1 170 / 121021.3 2.2 0.518.017.218.0
2014-Jul-22 00:00N 47°24' W 018°00'44718.6 170 / 101019.1 5.4 0.517.515.117.4
2014-Jul-21 00:00N 44°42' W 028°00'19916.6 240 / 91017.0 5.4 0.519.015.919.4
2014-Jul-20 12:00N 43°54' W 032°30'25321.1 270 / 161019.010.8 1.522.019.019.8
2014-Jul-20 00:00N 41°12' W 036°54'   270 / 101025.010.8 1.023.020.122.5
Track history (hours):
 
Tides and Currents Weather Stations Pressure Air Temp Water Temp Dewpoint Dewpoint Depression Visibility Wind Speed Wind Dir Waves Ship Positions

Liverpool Express

Last reported at 2014-Jul-29 14:32 UTC. Time now 2014-Jul-29 14:51 UTC.
Position N 51°22' E 002°37'.

Length 281 m; draft 10.3 m.

Type: Cargo ship. MMSI: 218025000.

Date/timePositionNaut miles runAvg speedWind from/ knotsBaromVisibWave heightAir tempDewpointWater temp
2014-Jul-29 14:32N 51°22' E 002°37'1414.3
2014-Jul-29 13:33N 51°19' E 002°16'1817.6
2014-Jul-29 12:34N 51°30' E 001°53'1919.2
2014-Jul-29 11:33N 51°48' E 001°43'9 8.5
2014-Jul-29 10:33N 51°45' E 001°30'1616.3
2014-Jul-29 09:33N 51°34' E 001°11'1616.1
2014-Jul-29 08:33N 51°29' E 000°46'10 9.3
2014-Jul-29 07:32N 51°30' E 000°30'0 0.0
2014-Jul-29 06:29N 51°30' E 000°30'0 0.0
2014-Jul-29 05:34N 51°30' E 000°30'0 0.0
2014-Jul-29 04:33N 51°30' E 000°30'0 0.0
2014-Jul-29 03:33N 51°30' E 000°30'0 0.0
2014-Jul-29 02:33N 51°30' E 000°30'0 0.0
2014-Jul-29 01:33N 51°30' E 000°30'0 0.0
2014-Jul-29 00:31N 51°30' E 000°30'0 0.0
2014-Jul-28 23:31N 51°30' E 000°30'0 0.0
2014-Jul-28 22:32N 51°30' E 000°30'0 0.0
2014-Jul-28 21:32N 51°30' E 000°30'0 0.0
2014-Jul-28 20:33N 51°30' E 000°30'0 0.0
2014-Jul-28 19:33N 51°30' E 000°30'0 0.0
2014-Jul-28 18:33N 51°30' E 000°30'0 0.0
2014-Jul-28 17:31N 51°30' E 000°30'3 2.9
2014-Jul-28 16:33N 51°30' E 000°35'1414.2
2014-Jul-28 15:33N 51°29' E 000°57'1616.3
2014-Jul-28 14:33N 51°37' E 001°20'1615.9
2014-Jul-28 13:34N 51°49' E 001°37'9 8.5
2014-Jul-28 12:33N 51°50' E 001°51'1413.3
2014-Jul-28 11:32N 51°56' E 002°11'1414.1
2014-Jul-28 10:33N 52°05' E 002°28'5115.4
2014-Jul-28 07:15N 52°37' E 003°31'1617.0
2014-Jul-28 06:18N 52°51' E 003°46'3017.4
2014-Jul-28 04:33N 53°11' E 004°24'2017.7
2014-Jul-28 03:25N 53°29' E 004°39'1719.6
2014-Jul-28 02:33N 53°36' E 005°05'2019.7
2014-Jul-28 01:33N 53°42' E 005°37'1919.2
2014-Jul-28 00:33N 53°49' E 006°07'5418.0
2014-Jul-27 21:33N 54°01' E 007°36'1717.0
2014-Jul-27 20:33N 54°01' E 008°05'1514.8
2014-Jul-27 19:33N 53°58' E 008°30'1616.0
2014-Jul-27 18:33N 53°51' E 008°54'1312.9
2014-Jul-27 17:33N 53°53' E 009°15'1515.1
2014-Jul-27 16:33N 53°40' E 009°30'1010.1
2014-Jul-27 15:33N 53°34' E 009°43'7 7.3
2014-Jul-27 14:34N 53°32' E 009°55'0 0.1
2014-Jul-27 13:33N 53°32' E 009°55'0 0.0
2014-Jul-27 12:31N 53°32' E 009°55'0 0.0
2014-Jul-27 11:32N 53°32' E 009°55'0 0.0
2014-Jul-27 10:32N 53°32' E 009°55'0 0.0
2014-Jul-27 09:32N 53°32' E 009°55'0 0.0
2014-Jul-27 08:32N 53°32' E 009°55'0 0.0
2014-Jul-27 07:31N 53°32' E 009°55'0 0.0
2014-Jul-27 06:34N 53°32' E 009°55'0 0.0
2014-Jul-27 05:33N 53°32' E 009°55'0 0.0
2014-Jul-27 04:33N 53°32' E 009°55'0 0.0
2014-Jul-27 03:33N 53°32' E 009°55'0 0.0
2014-Jul-27 02:31N 53°32' E 009°55'0 0.0
2014-Jul-27 01:33N 53°32' E 009°55'0 0.0
2014-Jul-27 00:33N 53°32' E 009°55'0 0.0
2014-Jul-26 23:33N 53°32' E 009°55'0 0.0
2014-Jul-26 22:30N 53°32' E 009°55'0 0.0
2014-Jul-26 21:33N 53°32' E 009°55'0 0.0
2014-Jul-26 20:33N 53°32' E 009°55'0 0.0
2014-Jul-26 19:32N 53°32' E 009°55'0 0.0
2014-Jul-26 18:32N 53°32' E 009°55'0 0.0
2014-Jul-26 17:33N 53°32' E 009°55'0 0.0
2014-Jul-26 16:32N 53°32' E 009°55'0 0.0
2014-Jul-26 15:33N 53°32' E 009°55'0 0.0
2014-Jul-26 14:31N 53°32' E 009°55'0 0.0
2014-Jul-26 13:31N 53°32' E 009°55'0 0.0
2014-Jul-26 12:28N 53°32' E 009°55'0 0.0
2014-Jul-26 11:28N 53°32' E 009°55'0 0.0
2014-Jul-26 10:31N 53°32' E 009°55'0 0.0
2014-Jul-26 09:33N 53°32' E 009°55'0 0.0
2014-Jul-26 08:33N 53°32' E 009°55'0 0.0
2014-Jul-26 07:33N 53°32' E 009°55'0 0.0
2014-Jul-26 06:33N 53°32' E 009°55'0 0.0
2014-Jul-26 05:33N 53°32' E 009°55'0 0.0
2014-Jul-26 04:34N 53°32' E 009°55'5 4.8
2014-Jul-26 03:33N 53°33' E 009°48'1211.6
2014-Jul-26 02:33N 53°39' E 009°31'1414.1
2014-Jul-26 01:33N 53°51' E 009°18'1312.8
2014-Jul-26 00:33N 53°51' E 008°57'1515.3
2014-Jul-25 23:33N 53°58' E 008°34'1514.8
2014-Jul-25 22:33N 53°59' E 008°09'9 9.1
2014-Jul-25 21:33N 53°58' E 007°53'9 9.3
2014-Jul-25 20:33N 53°56' E 007°38'9 9.3
2014-Jul-25 19:33N 53°54' E 007°22'1110.9
2014-Jul-25 18:33N 53°51' E 007°05'1110.9
2014-Jul-25 17:34N 53°49' E 006°47'1110.9
2014-Jul-25 16:33N 53°46' E 006°29'1110.9
2014-Jul-25 15:33N 53°43' E 006°11'1010.3
2014-Jul-25 14:33N 53°40' E 005°55'10 9.9
2014-Jul-25 13:33N 53°37' E 005°39'10 9.9
2014-Jul-25 12:33N 53°34' E 005°23'10 9.9
2014-Jul-25 11:33N 53°31' E 005°07'1616.3
2014-Jul-25 10:33N 53°24' E 004°42'1918.9
2014-Jul-25 09:33N 53°07' E 004°28'2020.1
2014-Jul-25 08:33N 52°49' E 004°13'2019.6
2014-Jul-25 07:33N 52°33' E 003°56'1818.2
2014-Jul-25 06:33N 52°14' E 003°54'1313.1
2014-Jul-25 05:33N 52°01' E 003°56'1312.7
2014-Jul-25 04:33N 51°55' E 004°14'7 7.1
2014-Jul-25 03:33N 51°53' E 004°25'0 0.3
2014-Jul-25 02:33N 51°53' E 004°24'0 0.0
2014-Jul-25 01:33N 51°53' E 004°24'0 0.0
2014-Jul-25 00:33N 51°53' E 004°24'0 0.0
2014-Jul-24 23:34N 51°53' E 004°24'0 0.0
2014-Jul-24 22:32N 51°53' E 004°24'0 0.0
2014-Jul-24 21:32N 51°53' E 004°24'0 0.0
2014-Jul-24 20:32N 51°53' E 004°24'0 0.0
2014-Jul-24 19:32N 51°53' E 004°24'0 0.0
2014-Jul-24 18:32N 51°53' E 004°24'0 0.0
2014-Jul-24 17:32N 51°53' E 004°24'0 0.0
2014-Jul-24 16:32N 51°53' E 004°24'0 0.0
2014-Jul-24 15:32N 51°53' E 004°24'0 0.0
2014-Jul-24 14:32N 51°53' E 004°24'0 0.0
2014-Jul-24 13:32N 51°53' E 004°24'0 0.0
2014-Jul-24 12:32N 51°53' E 004°24'0 0.0
2014-Jul-24 11:32N 51°53' E 004°24'0 0.0
2014-Jul-24 10:32N 51°53' E 004°24'0 0.0
2014-Jul-24 09:32N 51°53' E 004°24'0 0.0
2014-Jul-24 08:32N 51°53' E 004°24'0 0.0
2014-Jul-24 07:29N 51°53' E 004°24'0 0.0
2014-Jul-24 06:32N 51°53' E 004°24'1 1.2
2014-Jul-24 05:33N 51°54' E 004°23'6 6.5
2014-Jul-24 04:33N 51°56' E 004°13'1111.3
2014-Jul-24 03:33N 51°60' E 003°56'1212.0
2014-Jul-24 02:34N 51°58' E 003°37'1615.7
2014-Jul-24 01:33N 51°53' E 003°13'1716.9
2014-Jul-24 00:33N 51°47' E 002°47'1515.0
2014-Jul-23 23:33N 51°39' E 002°27'1919.0
2014-Jul-23 22:33N 51°25' E 002°06'1919.0
2014-Jul-23 21:33N 51°11' E 001°46'1919.3
2014-Jul-23 20:33N 50°54' E 001°30'1818.1
2014-Jul-23 19:33N 50°38' E 001°18'2017.7
2014-Jul-23 18:26N 50°27' E 000°52'1618.6
2014-Jul-23 17:33N 50°23' E 000°27'2519.0
2014-Jul-23 16:14N 50°17' W 000°12'1618.9
2014-Jul-23 15:22N 50°13' W 000°36'8616.8
2014-Jul-23 10:16N 49°51' W 002°45'40418.1
2014-Jul-22 12:00N 48°24' W 012°48'21818.1 170 / 121021.3 2.2 0.518.017.218.0
2014-Jul-22 00:00N 47°24' W 018°00'44718.6 170 / 101019.1 5.4 0.517.515.117.4
2014-Jul-21 00:00N 44°42' W 028°00'19916.6 240 / 91017.0 5.4 0.519.015.919.4
2014-Jul-20 12:00N 43°54' W 032°30'25321.1 270 / 161019.010.8 1.522.019.019.8
2014-Jul-20 00:00N 41°12' W 036°54'   270 / 101025.010.8 1.023.020.122.5

Dump ship's entire track history